CheckWX is a tool to help pilots better visualize weather data.  It is not intended as a substitute for an official pre-flight weather briefing.

20:46:15 UTC

KECP METAR
Northwest Florida Beaches International Airport
Panama City, Florida, USA
Current

34 mins ago

KECP 192012Z 28015KT 5SM BR BKN006 OVC011 23/21 A2956 RMK AO2 RAE08 CIG 004V008 P0000 T02280211
Observed
Oct-19 @ 20:12 UTC
Wind
  • 280° at 15 KTS
Visibility
5 SM
Flight Rules
IFR
Conditions
Mist
Cloud Levels
  • Broken at 600' AGL
  • Overcast at 1,100' AGL
Temperature
23°C / 73°F
Dewpoint
21°C / 70°F
Humidity
89%
Altimeter
29.56" Hg
Pressure
1001.02 hPa
Current Rain
0.01"
Previous

53 mins ago

KECP 191953Z 29012G20KT 1 1/2SM R16/3500VP6000FT -RA BR BKN006 OVC014 24/23 A2954 RMK AO2 PK WND 25029/1944 RAB04E21B44 SLP015 P0001 T02390228
Observed
Oct-19 @ 19:53 UTC
Wind
  • 290° at 12 KTS
  • Gusting to 20 KTS
Visibility
1 1/2 SM
Flight Rules
IFR
Conditions
Light Rain, Mist
Cloud Levels
  • Broken at 600' AGL
  • Overcast at 1,400' AGL
Temperature
24°C / 75°F
Dewpoint
23°C / 73°F
Humidity
94%
Altimeter
29.54" Hg
Pressure
1000.32 hPa
Current Rain
0.01"
Previous

2 hours ago

KECP 191913Z 29012KT 1 1/2SM R16/4000VP6000FT -RA BKN006 BKN019 25/23 A2952 RMK AO2 RAB04 P0001 T02500233
Observed
Oct-19 @ 19:13 UTC
Wind
  • 290° at 12 KTS
Visibility
1 1/2 SM
Flight Rules
IFR
Conditions
Light Rain
Cloud Levels
  • Broken at 600' AGL
  • Broken at 1,900' AGL
Temperature
25°C / 77°F
Dewpoint
23°C / 73°F
Humidity
89%
Altimeter
29.52" Hg
Pressure
999.62 hPa
Current Rain
0.01"